Time;durP1;ratioP1;P1;durP2;ratioP2;P2;SDS_P1;SDS_P2;PMS_P1;PMS_P2;Temp;Humidity;BMP_temperature;BMP_pressure;BME280_temperature;BME280_humidity;BME280_pressure;Samples;Min_cycle;Max_cycle;Signal;HPM_P1;HPM_P2
2022/05/04 00:00:24;;;;;;;18.80;11.60;;;;;;;5.30;100.00;97513.53;5038965;28;20039;-90
2022/05/04 00:02:50;;;;;;;21.77;10.20;;;;;;;5.36;100.00;97528.34;5054427;28;20029;-90
2022/05/04 00:05:16;;;;;;;14.20;9.23;;;;;;;5.07;100.00;97495.09;5038421;28;20036;-91
2022/05/04 00:07:41;;;;;;;16.98;9.77;;;;;;;5.08;100.00;97512.69;5054351;28;20033;-91
2022/05/04 00:10:08;;;;;;;15.70;8.98;;;;;;;5.13;100.00;97523.13;5036700;28;20033;-91
2022/05/04 00:12:34;;;;;;;16.52;9.50;;;;;;;5.17;100.00;97532.69;5053639;28;20025;-91
2022/05/04 00:15:00;;;;;;;13.55;8.65;;;;;;;5.20;100.00;97532.56;5036771;28;20132;-90
2022/05/04 00:17:26;;;;;;;19.35;10.38;;;;;;;5.23;100.00;97521.84;5051952;28;20094;-91
2022/05/04 00:19:51;;;;;;;21.33;11.65;;;;;;;5.16;100.00;97513.28;5053707;28;20092;-91
2022/05/04 00:22:19;;;;;;;18.77;9.70;;;;;;;5.15;100.00;97519.47;5054659;28;20024;-90
2022/05/04 00:24:45;;;;;;;16.50;10.45;;;;;;;5.08;100.00;97518.00;5052251;28;20098;-91
2022/05/04 00:27:11;;;;;;;16.67;10.75;;;;;;;5.12;100.00;97529.34;5036372;28;20135;-89
2022/05/04 00:29:36;;;;;;;19.27;10.75;;;;;;;5.06;100.00;97525.16;5053116;28;20100;-90
2022/05/04 00:32:02;;;;;;;14.88;10.07;;;;;;;5.13;100.00;97526.66;5037081;28;20443;-91
2022/05/04 00:34:28;;;;;;;14.57;9.65;;;;;;;5.10;100.00;97520.59;5037095;28;20089;-90
2022/05/04 00:36:53;;;;;;;18.00;9.85;;;;;;;5.16;100.00;97533.59;5037987;28;20500;-89
2022/05/04 00:39:19;;;;;;;15.10;9.40;;;;;;;5.08;100.00;97511.81;5055661;28;20511;-90
2022/05/04 00:41:45;;;;;;;16.50;9.52;;;;;;;5.08;100.00;97514.47;5053929;28;20124;-90
2022/05/04 00:44:10;;;;;;;15.80;9.80;;;;;;;5.04;100.00;97516.41;5052884;28;20020;-89
2022/05/04 00:46:36;;;;;;;14.73;9.10;;;;;;;5.04;100.00;97510.25;5052172;28;20025;-90
2022/05/04 00:49:02;;;;;;;15.30;9.07;;;;;;;5.05;100.00;97534.03;5052571;28;20103;-90
2022/05/04 00:51:27;;;;;;;13.95;7.95;;;;;;;4.95;100.00;97510.63;5035663;28;20085;-90
2022/05/04 00:53:54;;;;;;;17.90;8.13;;;;;;;4.92;100.00;97512.44;5037802;28;20025;-89
2022/05/04 00:56:19;;;;;;;13.73;8.57;;;;;;;4.80;100.00;97518.25;5038049;28;20532;-89
2022/05/04 00:58:57;;;;;;;16.10;8.63;;;;;;;4.84;100.00;97514.56;5054227;28;20091;-90
2022/05/04 01:01:28;;;;;;;13.10;9.05;;;;;;;4.87;100.00;97510.91;5038230;28;20020;-89
2022/05/04 01:03:55;;;;;;;12.90;8.40;;;;;;;4.82;100.00;97499.66;5038166;28;20037;-90
2022/05/04 01:06:21;;;;;;;15.68;9.02;;;;;;;4.78;100.00;97503.34;5059345;28;20566;-92
2022/05/04 01:08:48;;;;;;;13.20;8.10;;;;;;;4.70;100.00;97514.25;5037201;28;20177;-91
2022/05/04 01:11:14;;;;;;;13.18;8.60;;;;;;;4.56;100.00;97508.63;5054167;28;20033;-89
2022/05/04 01:13:40;;;;;;;13.45;9.02;;;;;;;4.54;100.00;97521.06;5054382;28;20476;-90
2022/05/04 01:16:05;;;;;;;14.57;9.05;;;;;;;4.42;100.00;97521.53;5054774;28;20025;-90
2022/05/04 01:18:31;;;;;;;15.25;9.70;;;;;;;4.42;100.00;97537.41;5054250;28;20122;-90
2022/05/04 01:20:57;;;;;;;19.30;10.05;;;;;;;4.23;100.00;97508.13;5038457;28;20029;-91
2022/05/04 01:23:22;;;;;;;17.98;9.88;;;;;;;4.31;100.00;97516.63;5055111;28;20049;-92
2022/05/04 01:25:53;;;;;;;16.33;8.60;;;;;;;4.25;100.00;97524.81;5039044;28;20029;-89
2022/05/04 01:28:19;;;;;;;15.52;8.60;;;;;;;4.27;100.00;97527.41;5038956;28;20044;-91
2022/05/04 01:30:45;;;;;;;15.52;9.20;;;;;;;4.20;100.00;97525.91;5055077;28;20083;-89
2022/05/04 01:33:10;;;;;;;12.13;7.50;;;;;;;4.07;100.00;97525.50;5039350;28;20056;-90
2022/05/04 01:35:36;;;;;;;11.90;7.80;;;;;;;4.07;100.00;97504.31;5037155;28;20053;-89
2022/05/04 01:38:02;;;;;;;11.70;7.75;;;;;;;4.17;100.00;97515.44;5037350;28;20036;-88
2022/05/04 01:40:28;;;;;;;12.07;8.82;;;;;;;4.02;100.00;97490.41;5037362;28;20051;-90
2022/05/04 01:42:53;;;;;;;16.88;9.65;;;;;;;4.19;100.00;97509.16;5036442;28;20071;-90
2022/05/04 01:45:19;;;;;;;16.40;9.23;;;;;;;4.21;100.00;97493.22;5037153;28;20025;-90
2022/05/04 01:47:49;;;;;;;12.00;8.18;;;;;;;4.46;100.00;97522.28;5037517;28;20029;-89
2022/05/04 01:50:16;;;;;;;12.60;8.63;;;;;;;4.52;100.00;97536.16;5040285;28;20060;-90
2022/05/04 01:52:41;;;;;;;18.42;9.52;;;;;;;4.36;100.00;97509.41;5040968;28;20043;-91
2022/05/04 01:55:08;;;;;;;14.85;9.43;;;;;;;4.55;100.00;97511.34;5040472;28;20187;-90
2022/05/04 01:57:34;;;;;;;15.48;9.32;;;;;;;4.54;100.00;97505.16;5041899;28;20029;-92
2022/05/04 02:00:00;;;;;;;17.05;9.90;;;;;;;4.56;100.00;97513.91;5041606;28;20119;-90
2022/05/04 02:02:26;;;;;;;18.63;10.27;;;;;;;4.53;100.00;97516.69;5058486;28;20067;-91
2022/05/04 02:04:53;;;;;;;25.10;10.60;;;;;;;4.61;100.00;97511.09;5057938;28;20036;-90
2022/05/04 02:07:19;;;;;;;20.73;11.48;;;;;;;4.76;100.00;97535.22;5040866;28;20060;-89
2022/05/04 02:09:45;;;;;;;23.88;11.38;;;;;;;4.72;100.00;97506.22;5056791;28;20025;-89
2022/05/04 02:12:16;;;;;;;21.30;11.02;;;;;;;4.74;100.00;97492.00;5055838;28;20029;-91
2022/05/04 02:14:44;;;;;;;17.35;9.88;;;;;;;5.04;100.00;97520.84;5056426;28;20036;-91
2022/05/04 02:17:10;;;;;;;14.95;9.30;;;;;;;5.00;100.00;97506.00;5054547;28;20033;-89
2022/05/04 02:19:36;;;;;;;16.35;9.05;;;;;;;4.99;100.00;97504.25;5041963;28;20519;-90
2022/05/04 02:22:01;;;;;;;17.38;10.25;;;;;;;5.07;100.00;97515.44;5041707;28;20518;-90
2022/05/04 02:24:27;;;;;;;16.55;10.02;;;;;;;4.99;100.00;97496.31;5040679;28;20059;-89
2022/05/04 02:26:53;;;;;;;20.20;10.80;;;;;;;5.03;100.00;97513.81;5057262;28;20393;-90
2022/05/04 02:29:19;;;;;;;19.50;11.40;;;;;;;5.09;100.00;97518.88;5057271;28;20024;-89
2022/05/04 02:31:57;;;;;;;23.80;12.45;;;;;;;5.14;100.00;97500.97;5040856;28;20439;-92
2022/05/04 02:34:23;;;;;;;21.95;11.48;;;;;;;5.32;100.00;97516.97;5058738;28;20025;-91
2022/05/04 02:39:37;;;;;;;18.60;11.50;;;;;;;5.54;100.00;97527.56;5055682;28;20047;-91
2022/05/04 02:42:03;;;;;;;19.50;10.88;;;;;;;5.51;100.00;97522.38;5041490;28;20029;-91
2022/05/04 02:44:28;;;;;;;14.95;10.00;;;;;;;5.54;100.00;97527.56;5040288;28;20496;-89
2022/05/04 02:46:54;;;;;;;17.73;10.27;;;;;;;5.48;100.00;97535.78;5060237;28;20036;-90
2022/05/04 02:49:21;;;;;;;21.75;10.75;;;;;;;5.40;100.00;97540.56;5042032;28;20032;-90
2022/05/04 02:51:47;;;;;;;18.25;10.95;;;;;;;5.33;100.00;97520.50;5058422;28;20021;-90
2022/05/04 02:54:12;;;;;;;16.85;10.70;;;;;;;5.25;100.00;97520.84;5039235;28;20032;-90
2022/05/04 02:56:38;;;;;;;21.52;11.70;;;;;;;5.14;100.00;97520.41;5056380;28;20032;-90
2022/05/04 02:59:18;;;;;;;18.88;11.25;;;;;;;5.16;100.00;97537.13;5056681;28;20495;-89
2022/05/04 03:04:32;;;;;;;20.77;10.90;;;;;;;4.90;100.00;97514.31;5057377;28;20467;-90
2022/05/04 03:06:58;;;;;;;18.40;10.63;;;;;;;4.92;100.00;97533.66;5040012;28;20037;-91
2022/05/04 03:09:23;;;;;;;37.97;15.20;;;;;;;4.98;100.00;97553.78;5039973;28;20035;-90
2022/05/04 03:11:55;;;;;;;30.63;14.57;;;;;;;4.87;100.00;97532.13;5058493;28;20045;-89
2022/05/04 03:14:21;;;;;;;23.92;13.65;;;;;;;4.91;100.00;97547.84;5059892;28;20036;-90
2022/05/04 03:16:48;;;;;;;24.30;12.52;;;;;;;5.02;100.00;97550.06;5056331;28;20035;-90
2022/05/04 03:19:13;;;;;;;18.75;11.20;;;;;;;5.07;100.00;97552.53;5056670;28;20021;-89
2022/05/04 03:21:39;;;;;;;28.45;11.65;;;;;;;5.10;100.00;97539.16;5039464;28;20116;-90
2022/05/04 03:24:05;;;;;;;18.05;10.57;;;;;;;5.23;100.00;97540.41;5056819;28;20056;-90
2022/05/04 03:26:31;;;;;;;20.00;11.02;;;;;;;5.37;100.00;97551.28;5041070;28;20105;-90
2022/05/04 03:28:57;;;;;;;19.70;11.57;;;;;;;5.32;100.00;97540.03;5057723;28;20021;-89
2022/05/04 03:31:23;;;;;;;20.67;12.57;;;;;;;5.45;100.00;97543.88;5056922;28;20025;-89
2022/05/04 03:33:49;;;;;;;22.38;13.57;;;;;;;5.59;100.00;97544.16;5056148;28;20025;-91
2022/05/04 03:36:15;;;;;;;20.02;12.77;;;;;;;5.63;100.00;97537.78;5054587;28;20481;-90
2022/05/04 03:38:41;;;;;;;24.27;13.10;;;;;;;5.82;100.00;97538.72;5052551;28;20056;-76
2022/05/04 03:41:06;;;;;;;21.58;12.70;;;;;;;5.94;100.00;97530.25;5053394;28;20408;-89
2022/05/04 03:43:33;;;;;;;20.60;12.80;;;;;;;6.05;100.00;97531.59;5054270;28;20039;-91
2022/05/04 03:46:19;;;;;;;21.73;13.00;;;;;;;6.13;100.00;97548.91;5037926;28;20025;-84
2022/05/04 03:48:45;;;;;;;20.73;12.73;;;;;;;6.15;100.00;97543.53;5055647;28;20082;-88
2022/05/04 03:51:13;;;;;;;24.95;13.32;;;;;;;6.23;100.00;97549.34;5039563;28;20094;-88
2022/05/04 03:53:39;;;;;;;24.30;11.35;;;;;;;6.24;100.00;97557.25;5041074;28;20112;-88
2022/05/04 03:56:05;;;;;;;22.50;12.27;;;;;;;6.03;100.00;97528.97;5054414;28;20025;-87
2022/05/04 03:58:31;;;;;;;23.67;12.80;;;;;;;6.00;100.00;97519.38;5056032;28;20438;-88
2022/05/04 04:00:57;;;;;;;24.75;11.52;;;;;;;6.16;100.00;97563.81;5055421;28;20091;-88
2022/05/04 04:03:23;;;;;;;20.90;12.73;;;;;;;6.00;100.00;97547.69;5051967;28;20032;-88
2022/05/04 04:05:48;;;;;;;24.50;14.43;;;;;;;6.15;100.00;97567.44;5037643;28;20033;-88
2022/05/04 04:08:14;;;;;;;27.05;12.20;;;;;;;6.15;100.00;97564.78;5055950;28;20039;-89
2022/05/04 04:10:40;;;;;;;25.23;15.05;;;;;;;6.13;100.00;97561.31;5038687;28;20652;-88
2022/05/04 04:13:08;;;;;;;32.47;14.98;;;;;;;5.98;100.00;97555.75;5053862;28;20037;-89
2022/05/04 04:15:34;;;;;;;28.80;14.75;;;;;;;6.13;100.00;97574.59;5037255;28;20051;-88
2022/05/04 04:18:00;;;;;;;28.25;15.73;;;;;;;6.14;100.00;97579.84;5053574;28;20041;-89
2022/05/04 04:23:10;;;;;;;27.98;15.20;;;;;;;6.27;100.00;97573.06;5052540;28;20060;-89
2022/05/04 04:25:36;;;;;;;45.47;18.80;;;;;;;6.47;100.00;97588.09;5036460;28;20488;-89
2022/05/04 04:28:05;;;;;;;30.30;16.17;;;;;;;6.52;100.00;97576.31;5053038;28;20037;-87
2022/05/04 04:30:32;;;;;;;26.83;15.23;;;;;;;6.70;100.00;97582.59;5036600;28;20033;-88
2022/05/04 04:33:08;;;;;;;40.22;23.13;;;;;;;6.87;100.00;97585.34;5054440;28;20416;-89
2022/05/04 04:35:34;;;;;;;91.63;47.00;;;;;;;6.99;100.00;97583.88;5051744;28;20032;-89
2022/05/04 04:38:00;;;;;;;25.40;15.50;;;;;;;7.01;100.00;97577.56;5053920;28;20477;-87
2022/05/04 04:40:26;;;;;;;63.10;37.50;;;;;;;7.25;100.00;97582.66;5051602;28;20131;-88
2022/05/04 04:42:52;;;;;;;33.58;16.55;;;;;;;7.34;100.00;97576.91;5052248;28;20060;-88
2022/05/04 04:45:17;;;;;;;30.20;16.48;;;;;;;7.50;100.00;97585.84;5035240;28;20031;-88
2022/05/04 04:47:46;;;;;;;41.83;24.02;;;;;;;7.84;100.00;97593.91;5054559;28;20032;-87
2022/05/04 04:50:13;;;;;;;30.27;16.55;;;;;;;7.99;100.00;97595.78;5051705;28;20029;-88
2022/05/04 04:52:38;;;;;;;26.85;14.52;;;;;;;7.90;100.00;97582.94;5051563;28;20084;-87
2022/05/04 04:55:05;;;;;;;30.30;14.25;;;;;;;8.10;100.00;97582.75;5035375;28;20492;-88
2022/05/04 04:57:33;;;;;;;37.30;18.23;;;;;;;8.12;100.00;97582.69;5035358;28;20090;-88
2022/05/04 04:59:59;;;;;;;32.85;15.80;;;;;;;8.09;100.00;97597.00;5052865;28;20029;-89
2022/05/04 05:02:25;;;;;;;26.25;14.13;;;;;;;7.98;100.00;97578.06;5036565;28;20416;-88
2022/05/04 05:04:51;;;;;;;24.42;14.30;;;;;;;8.05;100.00;97599.94;5055987;28;20044;-90
2022/05/04 05:07:17;;;;;;;30.65;15.93;;;;;;;7.88;100.00;97574.13;5055347;28;20063;-89
2022/05/04 05:09:42;;;;;;;27.52;13.85;;;;;;;8.04;100.00;97596.41;5036461;28;20028;-88
2022/05/04 05:12:08;;;;;;;28.83;12.88;;;;;;;8.23;100.00;97600.78;5036352;28;20033;-87
2022/05/04 05:17:18;;;;;;;35.65;14.82;;;;;;;8.45;98.31;97594.28;5053106;28;20573;-88
2022/05/04 05:19:44;;;;;;;32.33;14.25;;;;;;;8.50;97.83;97596.69;5036386;28;20037;-87
2022/05/04 05:22:10;;;;;;;31.92;13.00;;;;;;;8.39;98.63;97604.41;5036897;28;20064;-89
2022/05/04 05:24:35;;;;;;;37.03;15.48;;;;;;;8.55;98.00;97571.50;5055648;28;20480;-89
2022/05/04 05:27:01;;;;;;;49.45;15.50;;;;;;;9.71;91.35;97605.94;5039959;28;20040;-89
2022/05/04 05:29:26;;;;;;;42.65;18.52;;;;;;;10.51;87.30;97592.28;5058277;28;20021;-88
2022/05/04 05:31:52;;;;;;;44.10;15.27;;;;;;;12.18;76.09;97575.13;5058140;28;20029;-88
2022/05/04 05:34:18;;;;;;;34.10;13.68;;;;;;;12.52;71.85;97571.84;5058964;28;20029;-88
2022/05/04 05:36:44;;;;;;;23.38;15.18;;;;;;;13.82;67.25;97561.53;5042548;28;20043;-89
2022/05/04 05:39:10;;;;;;;33.17;12.93;;;;;;;15.64;60.47;97568.75;5059188;28;20021;-89
2022/05/04 05:41:36;;;;;;;25.48;13.80;;;;;;;15.28;58.18;97561.78;5059584;28;20021;-88
2022/05/04 05:44:02;;;;;;;26.02;11.57;;;;;;;14.79;60.64;97574.75;5044189;28;20078;-88
2022/05/04 05:46:29;;;;;;;17.70;11.57;;;;;;;14.84;61.22;97569.84;5060234;28;20093;-89
2022/05/04 05:48:55;;;;;;;25.58;11.98;;;;;;;14.43;61.10;97562.28;5042962;28;20415;-89
2022/05/04 05:51:21;;;;;;;29.45;12.40;;;;;;;15.26;59.66;97579.91;5058540;28;20108;-88
2022/05/04 05:53:49;;;;;;;23.60;11.45;;;;;;;15.86;56.35;97559.75;5040200;28;20035;-89
2022/05/04 05:56:15;;;;;;;18.15;11.07;;;;;;;14.67;58.71;97570.31;5039792;28;20032;-90
2022/05/04 05:58:41;;;;;;;16.23;10.45;;;;;;;13.67;62.35;97567.19;5039980;28;20510;-88
2022/05/04 06:01:06;;;;;;;17.90;10.80;;;;;;;14.56;60.84;97563.94;5039618;28;20043;-90
2022/05/04 06:03:32;;;;;;;23.48;11.30;;;;;;;16.57;55.26;97570.75;5056145;28;20397;-88
2022/05/04 06:05:57;;;;;;;28.10;15.80;;;;;;;17.54;51.77;97561.28;5054048;28;20037;-75
2022/05/04 06:08:23;;;;;;;21.38;13.70;;;;;;;18.71;48.69;97554.03;5035527;28;20091;-76
2022/05/04 06:10:48;;;;;;;26.10;15.00;;;;;;;17.26;51.27;97571.00;5053430;28;20020;-76
2022/05/04 06:13:14;;;;;;;23.85;12.82;;;;;;;16.46;53.29;97572.59;5051786;28;20033;-76
2022/05/04 06:15:40;;;;;;;21.50;12.40;;;;;;;16.13;53.29;97576.31;5052197;28;20484;-75
2022/05/04 06:18:06;;;;;;;24.55;13.50;;;;;;;15.07;56.67;97591.28;5051910;28;20025;-75
2022/05/04 06:20:31;;;;;;;22.75;13.27;;;;;;;15.03;57.41;97606.00;5052002;28;20064;-76
2022/05/04 06:22:57;;;;;;;26.27;13.40;;;;;;;14.87;58.62;97604.63;5051629;28;20094;-76
2022/05/04 06:25:23;;;;;;;20.63;12.57;;;;;;;15.71;57.23;97600.50;5051659;28;20054;-75
2022/05/04 06:27:49;;;;;;;17.60;12.13;;;;;;;17.64;51.84;97573.88;5051653;28;20033;-77
2022/05/04 06:35:43;;;;;;;15.20;10.77;;;;;;;16.95;51.96;97590.91;5051084;28;20027;-75
2022/05/04 06:38:10;;;;;;;17.83;10.73;;;;;;;15.87;54.91;97596.53;5051228;28;20479;-77
2022/05/04 06:40:36;;;;;;;17.23;10.65;;;;;;;15.80;56.35;97596.19;5034909;28;20025;-74
2022/05/04 06:43:01;;;;;;;19.98;9.68;;;;;;;15.92;55.66;97591.59;5051678;28;20029;-75
2022/05/04 06:45:27;;;;;;;14.07;8.55;;;;;;;16.77;53.36;97585.22;5051102;28;20033;-77
2022/05/04 06:47:53;;;;;;;11.10;7.15;;;;;;;17.04;51.56;97576.59;5051491;28;20029;-74
2022/05/04 06:50:18;;;;;;;9.73;6.10;;;;;;;18.04;49.33;97565.69;5052912;28;20032;-77
2022/05/04 06:52:44;;;;;;;9.23;5.93;;;;;;;19.92;45.50;97564.72;5051477;28;20033;-77
2022/05/04 06:55:10;;;;;;;9.77;5.90;;;;;;;20.80;43.35;97555.72;5051348;28;20020;-77
2022/05/04 06:57:36;;;;;;;10.25;5.63;;;;;;;21.74;40.70;97540.34;5051280;28;20484;-77
2022/05/04 07:00:05;;;;;;;5.20;3.92;;;;;;;19.79;42.51;97558.78;5051115;28;20040;-76
2022/05/04 07:02:33;;;;;;;8.00;4.57;;;;;;;20.23;42.76;97559.78;5034318;28;20404;-76
2022/05/04 07:04:59;;;;;;;7.95;5.10;;;;;;;20.39;43.34;97557.28;5050918;28;20029;-76
2022/05/04 07:07:25;;;;;;;19.52;5.93;;;;;;;22.84;39.73;97543.63;5050857;28;20040;-76
2022/05/04 07:09:50;;;;;;;10.48;6.07;;;;;;;22.53;38.73;97537.13;5052012;28;20041;-75
2022/05/04 07:12:16;;;;;;;12.25;5.28;;;;;;;23.32;37.92;97536.41;5034117;28;20033;-74
2022/05/04 07:14:41;;;;;;;9.40;6.63;;;;;;;22.95;37.68;97537.81;5051070;28;20507;-76
2022/05/04 07:17:07;;;;;;;11.23;6.22;;;;;;;22.56;39.04;97536.78;5050746;28;20039;-76
2022/05/04 07:19:33;;;;;;;8.75;5.97;;;;;;;23.98;36.58;97536.84;5034185;28;20067;-76
2022/05/04 07:21:58;;;;;;;9.88;5.45;;;;;;;25.46;33.46;97515.31;5050701;28;20107;-76
2022/05/04 07:24:24;;;;;;;9.00;5.70;;;;;;;26.17;32.51;97514.63;5033938;28;20051;-76
2022/05/04 07:26:50;;;;;;;9.98;6.25;;;;;;;27.03;31.63;97513.59;5033945;28;20040;-76
2022/05/04 07:29:15;;;;;;;9.15;5.72;;;;;;;27.77;30.05;97505.66;5050444;28;20021;-76
2022/05/04 07:31:42;;;;;;;8.40;5.57;;;;;;;27.10;30.92;97510.91;5051820;28;20123;-76
2022/05/04 07:34:07;;;;;;;11.45;6.25;;;;;;;26.97;31.26;97514.38;5033819;28;20413;-76
2022/05/04 07:36:33;;;;;;;7.15;5.22;;;;;;;26.20;31.29;97506.00;5050417;28;20111;-76
2022/05/04 07:38:58;;;;;;;11.35;5.40;;;;;;;26.04;31.67;97519.91;5050415;28;20132;-76
2022/05/04 07:44:08;;;;;;;7.80;4.97;;;;;;;26.68;30.23;97506.25;5050485;28;20499;-76
2022/05/04 07:46:34;;;;;;;11.23;5.75;;;;;;;25.68;31.65;97505.31;5050328;28;20033;-76
2022/05/04 07:49:01;;;;;;;7.15;5.93;;;;;;;26.08;31.63;97513.00;5033363;28;20024;-76
2022/05/04 07:51:27;;;;;;;7.65;4.47;;;;;;;26.55;30.34;97511.66;5050151;28;20428;-74
2022/05/04 07:53:52;;;;;;;8.80;6.28;;;;;;;26.28;30.81;97510.50;5049991;28;20029;-75
2022/05/04 07:56:18;;;;;;;6.80;5.40;;;;;;;26.79;30.11;97511.25;5050009;28;20036;-75
2022/05/04 07:58:44;;;;;;;14.57;8.25;;;;;;;27.11;29.66;97516.19;5050188;28;20480;-77
2022/05/04 08:06:40;;;;;;;10.45;5.80;;;;;;;26.51;31.93;97518.56;5050046;28;20095;-74
2022/05/04 08:09:05;;;;;;;11.98;6.43;;;;;;;27.75;30.09;97513.22;5049671;28;20025;-75
2022/05/04 08:11:31;;;;;;;28.88;21.10;;;;;;;28.42;29.38;97519.69;5049876;28;20036;-76
2022/05/04 08:13:56;;;;;;;11.88;7.25;;;;;;;29.93;27.85;97516.13;5049766;28;20419;-75
2022/05/04 08:16:22;;;;;;;11.30;6.25;;;;;;;31.07;25.78;97501.25;5033016;28;20112;-76
2022/05/04 08:18:48;;;;;;;9.75;6.10;;;;;;;31.63;25.37;97498.41;5049617;28;20393;-76
2022/05/04 08:21:14;;;;;;;11.30;6.90;;;;;;;30.70;26.23;97501.31;5049607;28;20059;-74
2022/05/04 08:23:40;;;;;;;10.55;7.00;;;;;;;29.99;27.43;97502.28;5050724;28;20067;-76
2022/05/04 08:26:05;;;;;;;12.77;6.82;;;;;;;30.14;25.66;97485.47;5032854;28;20029;-74
2022/05/04 08:28:31;;;;;;;10.23;5.65;;;;;;;32.14;24.24;97488.91;5050706;28;20048;-74
2022/05/04 08:30:57;;;;;;;11.02;5.18;;;;;;;32.38;22.75;97479.63;5049340;28;20111;-74
2022/05/04 08:33:22;;;;;;;5.32;2.30;;;;;;;29.71;20.87;97456.75;5032692;28;20078;-77
2022/05/04 08:35:48;;;;;;;4.10;2.92;;;;;;;30.46;21.71;97461.50;5049661;28;20401;-75
2022/05/04 08:38:14;;;;;;;5.72;2.72;;;;;;;31.78;20.72;97464.00;5049366;28;20025;-75
2022/05/04 08:40:39;;;;;;;4.57;2.30;;;;;;;33.13;19.11;97449.53;5049562;28;20040;-75
2022/05/04 08:43:07;;;;;;;6.22;2.20;;;;;;;33.02;18.44;97436.44;5049484;28;20029;-74
2022/05/04 08:45:37;;;;;;;7.93;2.83;;;;;;;32.53;19.17;97446.81;5032829;28;20043;-75
2022/05/04 08:48:08;;;;;;;3.78;2.30;;;;;;;32.73;18.83;97433.50;5050444;28;20033;-75
2022/05/04 08:50:38;;;;;;;2.85;2.28;;;;;;;33.13;18.87;97443.97;5049124;28;20439;-75
2022/05/04 08:53:05;;;;;;;2.53;2.30;;;;;;;32.68;18.88;97436.16;5050375;28;20120;-75
2022/05/04 08:55:30;;;;;;;5.07;2.78;;;;;;;32.37;19.68;97443.84;5049397;28;20632;-75
2022/05/04 08:57:56;;;;;;;4.80;2.40;;;;;;;33.24;19.06;97445.91;5048547;28;20133;-74
2022/05/04 09:00:23;;;;;;;5.47;2.58;;;;;;;33.52;19.19;97440.47;5049232;28;20028;-74
2022/05/04 09:02:49;;;;;;;4.57;2.35;;;;;;;33.13;19.33;97443.97;5049249;28;20178;-74
2022/05/04 09:05:23;;;;;;;5.40;2.70;;;;;;;31.99;21.09;97449.69;5049109;28;20089;-74
2022/05/04 09:07:51;;;;;;;4.28;2.50;;;;;;;32.08;21.03;97456.63;5049200;28;20481;-75
2022/05/04 09:10:37;;;;;;;7.03;2.83;;;;;;;31.43;22.27;97452.66;5048822;28;20052;-76
2022/05/04 09:13:04;;;;;;;3.25;2.42;;;;;;;32.70;21.00;97458.91;5048824;28;20032;-76
2022/05/04 09:15:32;;;;;;;7.32;2.92;;;;;;;32.62;21.22;97455.66;5049117;28;20477;-75
2022/05/04 09:17:59;;;;;;;6.25;3.00;;;;;;;33.86;20.11;97447.06;5048958;28;20040;-76
2022/05/04 09:23:18;;;;;;;6.28;3.40;;;;;;;32.84;21.28;97451.25;5049454;28;20071;-76
2022/05/04 09:25:44;;;;;;;5.32;2.65;;;;;;;31.90;22.13;97448.31;5050159;28;20112;-75
2022/05/04 09:28:13;;;;;;;5.00;3.08;;;;;;;33.82;20.99;97445.03;5048948;28;20120;-76
2022/05/04 09:30:52;;;;;;;8.65;5.35;;;;;;;31.37;23.21;97446.13;5049093;28;20111;-76
2022/05/04 09:33:23;;;;;;;10.23;3.25;;;;;;;31.39;22.92;97455.00;5058926;28;20423;-76
2022/05/04 09:35:49;;;;;;;6.03;2.78;;;;;;;32.46;22.47;97462.66;5048865;28;20021;-75
2022/05/04 09:46:39;;;;;;;3.45;2.25;;;;;;;34.48;20.70;97437.00;5049136;28;20079;-76
2022/05/04 09:49:28;;;;;;;3.25;2.20;;;;;;;33.75;21.08;97437.66;5048520;28;20036;-76
2022/05/04 09:51:54;;;;;;;4.85;2.55;;;;;;;31.79;22.61;97436.06;5048768;28;20401;-76
2022/05/04 09:54:20;;;;;;;3.92;2.30;;;;;;;29.54;24.77;97435.16;5049141;28;20017;-76
2022/05/04 09:56:47;;;;;;;2.45;2.10;;;;;;;28.59;25.71;97444.94;5065825;28;20140;-76
2022/05/04 09:59:15;;;;;;;3.65;3.15;;;;;;;30.31;24.63;97436.09;5048653;28;20017;-76
2022/05/04 10:01:44;;;;;;;9.07;2.22;;;;;;;32.12;22.78;97443.97;5048885;28;20028;-76
2022/05/04 10:04:10;;;;;;;25.23;20.90;;;;;;;31.54;23.04;97424.25;5031780;28;20031;-76
2022/05/04 10:06:36;;;;;;;7.18;3.75;;;;;;;32.80;22.12;97418.69;5048847;28;20404;-76
2022/05/04 10:09:04;;;;;;;8.13;2.42;;;;;;;32.27;22.42;97425.03;5049786;28;20032;-75
2022/05/04 10:11:31;;;;;;;4.78;3.45;;;;;;;32.68;22.48;97430.59;5052883;28;20104;-75
2022/05/04 10:14:01;;;;;;;7.25;2.28;;;;;;;29.55;25.09;97425.84;5052461;28;20586;-76
2022/05/04 10:16:33;;;;;;;3.75;2.33;;;;;;;30.83;23.74;97421.06;5051974;28;20031;-76
2022/05/04 10:19:00;;;;;;;2.75;1.73;;;;;;;33.14;21.53;97410.44;5052035;28;20032;-76
2022/05/04 10:21:26;;;;;;;3.63;2.00;;;;;;;33.41;21.05;97401.66;5052000;28;20036;-76
2022/05/04 10:23:59;;;;;;;3.80;2.28;;;;;;;33.27;21.56;97401.03;5068308;28;20528;-76
2022/05/04 10:26:35;;;;;;;9.80;3.10;;;;;;;32.67;22.17;97398.44;5052004;28;20037;-76
2022/05/04 10:31:53;;;;;;;3.15;2.30;;;;;;;34.11;20.70;97394.88;5052264;28;20028;-76
2022/05/04 10:34:19;;;;;;;8.35;4.95;;;;;;;35.05;19.77;97384.88;5051468;28;20036;-76
2022/05/04 10:36:51;;;;;;;7.82;2.40;;;;;;;34.69;19.98;97383.47;5051781;28;20050;-74
2022/05/04 10:39:24;;;;;;;3.95;2.17;;;;;;;33.17;21.44;97385.00;5052950;28;20024;-76
2022/05/04 10:41:50;;;;;;;5.18;3.00;;;;;;;33.05;21.92;97381.34;5051645;28;20056;-75
2022/05/04 10:44:17;;;;;;;5.25;2.55;;;;;;;33.17;22.14;97376.69;5034434;28;20574;-75
2022/05/04 10:46:46;;;;;;;3.42;2.30;;;;;;;33.49;21.25;97377.13;5051604;28;20036;-75
2022/05/04 10:49:14;;;;;;;5.15;2.20;;;;;;;35.75;19.69;97381.50;5051412;28;20400;-75
2022/05/04 10:51:42;;;;;;;6.03;2.20;;;;;;;33.79;21.09;97360.31;5051440;28;20021;-76
2022/05/04 10:54:17;;;;;;;3.03;2.60;;;;;;;34.17;20.79;97377.22;5052962;28;20033;-76
2022/05/04 10:56:48;;;;;;;3.17;2.10;;;;;;;35.22;19.69;97362.66;5034803;28;20119;-75
2022/05/04 10:59:34;;;;;;;2.38;2.08;;;;;;;35.27;19.77;97371.06;5051055;28;20032;-76
2022/05/04 11:02:04;;;;;;;3.72;2.38;;;;;;;34.19;19.94;97377.81;5034521;28;20498;-76
2022/05/04 11:04:30;;;;;;;4.78;3.55;;;;;;;33.37;21.33;97368.00;5050936;28;20129;-75
2022/05/04 11:07:07;;;;;;;4.55;2.10;;;;;;;35.54;19.66;97374.78;5051304;28;20033;-75
2022/05/04 11:09:39;;;;;;;5.72;2.30;;;;;;;35.31;19.25;97364.75;5051447;28;20033;-75
2022/05/04 11:12:06;;;;;;;2.50;1.95;;;;;;;35.07;19.43;97352.09;5051028;28;20032;-76
2022/05/04 11:14:34;;;;;;;2.72;2.10;;;;;;;35.73;19.19;97356.72;5050811;28;20120;-76
2022/05/04 11:17:02;;;;;;;3.08;2.28;;;;;;;35.94;19.07;97349.44;5050967;28;20033;-76
2022/05/04 11:19:29;;;;;;;7.85;2.80;;;;;;;34.12;20.39;97354.03;5050980;28;20029;-77
2022/05/04 11:21:56;;;;;;;2.45;2.25;;;;;;;32.54;20.95;97342.38;5050188;28;20051;-76
2022/05/04 11:24:24;;;;;;;9.05;2.47;;;;;;;32.67;21.45;97351.31;5050840;28;20151;-76
2022/05/04 11:26:51;;;;;;;6.00;2.40;;;;;;;31.86;22.07;97342.75;5033899;28;20036;-76
2022/05/04 11:29:26;;;;;;;3.95;2.70;;;;;;;31.86;22.05;97342.75;5050749;28;20480;-76
2022/05/04 11:32:01;;;;;;;5.15;3.60;;;;;;;30.38;23.16;97335.59;5034836;28;20059;-76
2022/05/04 11:34:35;;;;;;;11.25;4.75;;;;;;;28.93;25.35;97337.34;5051004;28;20029;-76
2022/05/04 11:37:11;;;;;;;7.43;3.30;;;;;;;28.11;25.50;97343.31;5050558;28;20036;-76
2022/05/04 11:39:39;;;;;;;6.95;3.35;;;;;;;28.73;25.65;97347.56;5050503;28;20024;-77
2022/05/04 11:42:09;;;;;;;5.63;2.70;;;;;;;28.48;25.14;97342.69;5050278;28;20154;-76
2022/05/04 11:44:35;;;;;;;3.10;2.50;;;;;;;27.24;26.53;97342.34;5050263;28;20404;-76
2022/05/04 11:47:02;;;;;;;6.82;3.60;;;;;;;26.77;27.94;97335.72;5033471;28;20037;-75
2022/05/04 11:49:30;;;;;;;16.75;2.70;;;;;;;25.27;29.09;97329.63;5050400;28;20021;-76
2022/05/04 11:51:57;;;;;;;5.80;3.38;;;;;;;25.19;29.06;97338.81;5050066;28;20454;-76
2022/05/04 11:54:23;;;;;;;15.93;4.60;;;;;;;25.39;29.03;97336.31;5050587;28;20025;-76
2022/05/04 11:56:49;;;;;;;4.15;2.80;;;;;;;26.81;27.00;97327.97;5050114;28;20032;-76
2022/05/04 11:59:15;;;;;;;5.88;3.47;;;;;;;28.84;24.77;97322.13;5033672;28;20036;-76
2022/05/04 12:01:41;;;;;;;3.42;2.47;;;;;;;28.10;24.91;97316.00;5050069;28;20126;-76